createdAt,value
2018-03-27T00:00:29.274Z,0
2018-03-27T00:01:09.717Z,0
2018-03-27T00:01:50.076Z,0
2018-03-27T00:02:30.477Z,0
2018-03-27T00:03:10.860Z,0
2018-03-27T00:03:51.260Z,0
2018-03-27T00:04:31.648Z,0
2018-03-27T00:05:12.053Z,0
2018-03-27T00:05:52.476Z,0
2018-03-27T00:06:32.862Z,0
2018-03-27T00:07:13.257Z,0
2018-03-27T00:07:53.682Z,0
2018-03-27T00:08:34.086Z,0
2018-03-27T00:09:14.516Z,0
2018-03-27T00:09:54.932Z,0
2018-03-27T00:10:35.440Z,0
2018-03-27T00:11:15.737Z,0
2018-03-27T00:11:56.152Z,0
2018-03-27T00:12:36.532Z,0
2018-03-27T00:13:16.943Z,0
2018-03-27T00:13:57.355Z,0
2018-03-27T00:14:37.757Z,0
2018-03-27T00:15:18.183Z,0
2018-03-27T00:15:58.603Z,0
2018-03-27T00:16:38.986Z,0
2018-03-27T00:17:19.370Z,0
2018-03-27T00:17:59.761Z,0
2018-03-27T00:18:40.146Z,0
2018-03-27T00:19:20.581Z,0
2018-03-27T00:20:00.945Z,0
2018-03-27T00:20:41.344Z,0
2018-03-27T00:21:21.760Z,0
2018-03-27T00:22:02.141Z,0
2018-03-27T00:22:42.538Z,0
2018-03-27T00:23:22.952Z,0
2018-03-27T00:24:03.377Z,0
2018-03-27T00:24:43.770Z,0
2018-03-27T00:25:24.183Z,0
2018-03-27T00:26:04.640Z,0
2018-03-27T00:26:44.995Z,0
2018-03-27T00:27:25.407Z,0
2018-03-27T00:29:53.043Z,0
2018-03-27T00:30:33.451Z,0
2018-03-27T00:31:13.865Z,0
2018-03-27T00:31:54.260Z,0
2018-03-27T00:34:26.995Z,0
2018-03-27T00:35:07.405Z,0
2018-03-27T00:35:47.752Z,0
2018-03-27T00:38:15.391Z,0
2018-03-27T00:38:55.812Z,0
2018-03-27T00:39:36.217Z,0
2018-03-27T00:40:16.639Z,0
2018-03-27T00:40:57.071Z,0
2018-03-27T00:41:37.463Z,0
2018-03-27T00:42:17.873Z,0
2018-03-27T00:42:58.236Z,0
2018-03-27T00:43:38.639Z,0
2018-03-27T00:44:19.050Z,0
2018-03-27T00:44:59.443Z,0
2018-03-27T00:45:39.808Z,0
2018-03-27T00:46:20.203Z,0
2018-03-27T00:47:00.588Z,0
2018-03-27T00:47:40.980Z,0
2018-03-27T00:48:21.457Z,0
2018-03-27T00:49:01.833Z,0
2018-03-27T00:49:42.230Z,0
2018-03-27T00:50:22.630Z,0
2018-03-27T00:51:03.002Z,0
2018-03-27T00:51:43.396Z,0
2018-03-27T00:52:23.802Z,0
2018-03-27T00:53:04.213Z,0
2018-03-27T00:53:44.654Z,0
2018-03-27T00:54:25.009Z,0
2018-03-27T00:55:05.404Z,0
2018-03-27T00:55:45.819Z,0
2018-03-27T00:56:26.189Z,0
2018-03-27T00:57:06.601Z,0
2018-03-27T00:57:46.998Z,0
2018-03-27T00:58:27.386Z,0
2018-03-27T00:59:07.771Z,0
2018-03-27T00:59:48.193Z,0
2018-03-27T01:00:28.574Z,0
2018-03-27T01:01:09.032Z,0
2018-03-27T01:01:49.397Z,0
2018-03-27T01:02:29.825Z,0
2018-03-27T01:03:10.210Z,0
2018-03-27T01:03:50.604Z,0
2018-03-27T01:04:31.005Z,0
2018-03-27T01:05:11.447Z,0
2018-03-27T01:05:51.898Z,0
2018-03-27T01:06:32.202Z,0
2018-03-27T01:07:12.610Z,0
2018-03-27T01:07:52.986Z,0
2018-03-27T01:10:10.644Z,0
2018-03-27T01:10:50.977Z,0
2018-03-27T01:11:31.407Z,0
2018-03-27T01:12:11.814Z,0
2018-03-27T01:12:52.222Z,0
2018-03-27T01:13:32.628Z,0
2018-03-27T01:14:13.039Z,0
2018-03-27T01:14:53.440Z,0
2018-03-27T01:15:33.868Z,0
2018-03-27T01:16:14.280Z,0
2018-03-27T01:16:54.683Z,0
2018-03-27T01:17:35.086Z,0
2018-03-27T01:18:15.494Z,0
2018-03-27T01:18:55.921Z,0
2018-03-27T01:19:36.323Z,0
2018-03-27T01:20:16.737Z,0
2018-03-27T01:20:57.134Z,0
2018-03-27T01:21:37.542Z,0
2018-03-27T01:24:15.319Z,0
2018-03-27T01:24:55.718Z,0
2018-03-27T01:25:36.123Z,0
2018-03-27T01:26:16.500Z,0
2018-03-27T01:26:56.902Z,0
2018-03-27T01:27:37.324Z,0
2018-03-27T01:28:17.750Z,0
2018-03-27T01:28:58.145Z,0
2018-03-27T01:29:38.558Z,0
2018-03-27T01:30:18.994Z,0
2018-03-27T01:30:59.381Z,0
2018-03-27T01:31:39.806Z,0
2018-03-27T01:32:20.180Z,0
2018-03-27T01:33:00.609Z,0
2018-03-27T01:33:41.008Z,0
2018-03-27T01:34:21.430Z,0
2018-03-27T01:35:01.843Z,0
2018-03-27T01:35:42.227Z,0
2018-03-27T01:38:14.956Z,0
2018-03-27T01:38:55.366Z,0
2018-03-27T01:39:35.744Z,0
2018-03-27T01:40:16.205Z,0
2018-03-27T01:40:56.601Z,0
2018-03-27T01:41:37.001Z,0
2018-03-27T01:42:17.385Z,0
2018-03-27T01:42:57.797Z,0
2018-03-27T01:43:38.186Z,0
2018-03-27T01:44:18.568Z,0
2018-03-27T01:46:51.301Z,0
2018-03-27T01:47:31.740Z,0
2018-03-27T01:48:12.122Z,0
2018-03-27T01:48:52.534Z,0
2018-03-27T01:49:32.927Z,0
2018-03-27T01:50:13.292Z,0
2018-03-27T01:50:53.691Z,0
2018-03-27T01:51:34.089Z,0
2018-03-27T01:52:14.500Z,0
2018-03-27T01:52:54.863Z,0
2018-03-27T01:53:35.291Z,0
2018-03-27T01:54:15.689Z,0
2018-03-27T01:54:56.084Z,0
2018-03-27T01:55:36.482Z,0
2018-03-27T01:56:16.877Z,0
2018-03-27T01:56:57.285Z,0
2018-03-27T01:57:37.670Z,0
2018-03-27T01:58:18.061Z,0
2018-03-27T01:58:58.458Z,0
2018-03-27T01:59:38.853Z,0
2018-03-27T02:01:56.427Z,0
2018-03-27T02:02:36.851Z,0
2018-03-27T02:03:17.242Z,0
2018-03-27T02:03:57.646Z,0
2018-03-27T02:04:38.060Z,0
2018-03-27T02:05:18.506Z,0
2018-03-27T02:05:58.855Z,0
2018-03-27T02:06:39.249Z,0
2018-03-27T02:07:19.643Z,0
2018-03-27T02:08:00.043Z,0
2018-03-27T02:08:40.445Z,0
2018-03-27T02:09:20.832Z,0
2018-03-27T02:10:01.247Z,0
2018-03-27T02:10:41.667Z,0
2018-03-27T02:11:22.083Z,0
2018-03-27T02:12:02.448Z,0
2018-03-27T02:12:42.844Z,0
2018-03-27T02:13:23.231Z,0
2018-03-27T02:14:03.621Z,0
2018-03-27T02:14:44.040Z,0
2018-03-27T02:15:24.420Z,0
2018-03-27T02:16:04.804Z,0
2018-03-27T02:16:45.218Z,0
2018-03-27T02:17:25.610Z,0
2018-03-27T02:18:06.006Z,0
2018-03-27T02:18:46.410Z,0
2018-03-27T02:19:26.816Z,0
2018-03-27T02:20:07.223Z,0
2018-03-27T02:20:47.650Z,0
2018-03-27T02:21:28.053Z,0
2018-03-27T02:22:08.442Z,0
2018-03-27T02:22:48.846Z,0
2018-03-27T02:23:29.260Z,0
2018-03-27T02:24:09.666Z,0
2018-03-27T02:24:50.040Z,0
2018-03-27T02:25:30.478Z,0
2018-03-27T02:26:10.857Z,0
2018-03-27T02:26:51.283Z,0
2018-03-27T02:27:31.684Z,0
2018-03-27T02:28:12.109Z,0
2018-03-27T02:28:52.471Z,0
2018-03-27T02:29:32.894Z,0
2018-03-27T02:30:13.286Z,0
2018-03-27T02:30:53.713Z,0
2018-03-27T02:31:34.120Z,0
2018-03-27T02:32:14.526Z,0
2018-03-27T02:32:54.931Z,0
2018-03-27T02:33:35.342Z,0
2018-03-27T02:34:15.764Z,0
2018-03-27T02:34:56.220Z,0
2018-03-27T02:35:36.570Z,0
2018-03-27T02:36:16.966Z,0
2018-03-27T02:36:57.383Z,0
2018-03-27T02:37:37.762Z,0
2018-03-27T02:38:18.151Z,0
2018-03-27T02:38:58.584Z,0
2018-03-27T02:39:38.986Z,0
2018-03-27T02:40:19.398Z,0
2018-03-27T02:40:59.788Z,0
2018-03-27T02:41:40.256Z,0
2018-03-27T02:42:20.602Z,0
2018-03-27T02:43:00.995Z,0
2018-03-27T02:43:41.405Z,0
2018-03-27T02:44:21.810Z,0
2018-03-27T02:45:02.196Z,0
2018-03-27T02:45:42.617Z,0
2018-03-27T02:46:23.041Z,0
2018-03-27T02:47:03.448Z,0
2018-03-27T02:47:43.830Z,0
2018-03-27T02:48:24.232Z,0
2018-03-27T02:49:04.625Z,0
2018-03-27T02:49:45.040Z,0
2018-03-27T02:50:25.444Z,0
2018-03-27T02:51:05.850Z,0
2018-03-27T02:51:46.276Z,0
2018-03-27T02:52:26.703Z,0
2018-03-27T02:53:07.073Z,0
2018-03-27T02:53:47.470Z,0
2018-03-27T02:54:27.889Z,0
2018-03-27T02:55:08.273Z,0
2018-03-27T02:55:48.675Z,0
2018-03-27T02:56:29.070Z,0
2018-03-27T02:57:09.466Z,0
2018-03-27T02:57:49.866Z,0
2018-03-27T02:58:30.267Z,0
2018-03-27T02:59:10.675Z,0
2018-03-27T02:59:51.030Z,0
2018-03-27T03:00:31.468Z,0
2018-03-27T03:01:11.832Z,0
2018-03-27T03:03:24.435Z,0
2018-03-27T03:04:04.693Z,0
2018-03-27T03:04:45.118Z,0
2018-03-27T03:05:25.523Z,0
2018-03-27T03:07:58.291Z,0
2018-03-27T03:08:38.658Z,0
2018-03-27T03:09:19.076Z,0
2018-03-27T03:09:59.506Z,0
2018-03-27T03:10:39.867Z,0
2018-03-27T03:11:20.253Z,0
2018-03-27T03:12:00.689Z,0
2018-03-27T03:12:41.066Z,0
2018-03-27T03:13:21.470Z,0
2018-03-27T03:14:01.864Z,0
2018-03-27T03:14:42.245Z,0
2018-03-27T03:15:22.607Z,0
2018-03-27T03:17:35.070Z,0
2018-03-27T03:18:15.462Z,0
2018-03-27T03:18:55.892Z,0
2018-03-27T03:19:36.284Z,0
2018-03-27T03:20:16.656Z,0
2018-03-27T03:20:57.071Z,0
2018-03-27T03:21:37.498Z,0
2018-03-27T03:22:17.948Z,0
2018-03-27T03:22:58.293Z,0
2018-03-27T03:23:38.663Z,0
2018-03-27T03:24:19.071Z,0
2018-03-27T03:24:59.465Z,0
2018-03-27T03:25:39.895Z,0
2018-03-27T03:26:20.314Z,0
2018-03-27T03:27:00.735Z,0
2018-03-27T03:27:41.118Z,0
2018-03-27T03:28:21.531Z,0
2018-03-27T03:29:01.900Z,0
2018-03-27T03:29:42.364Z,0
2018-03-27T03:30:22.749Z,0
2018-03-27T03:31:03.148Z,0
2018-03-27T03:31:43.565Z,0
2018-03-27T03:32:23.956Z,0
2018-03-27T03:33:04.360Z,0
2018-03-27T03:33:44.779Z,0
2018-03-27T03:34:25.208Z,0
2018-03-27T03:35:05.616Z,0
2018-03-27T03:35:46.010Z,0
2018-03-27T03:36:26.417Z,0
2018-03-27T03:37:06.832Z,0
2018-03-27T03:37:47.253Z,0
2018-03-27T03:38:27.660Z,0
2018-03-27T03:39:08.055Z,0
2018-03-27T03:41:20.774Z,0
2018-03-27T03:42:00.992Z,0
2018-03-27T03:42:41.400Z,0
2018-03-27T03:43:21.781Z,0
2018-03-27T03:44:02.218Z,0
2018-03-27T03:44:42.575Z,0
2018-03-27T03:45:23.025Z,0
2018-03-27T03:46:03.416Z,0
2018-03-27T03:46:43.828Z,0
2018-03-27T03:47:24.228Z,0
2018-03-27T03:48:04.610Z,0
2018-03-27T03:48:45.007Z,0
2018-03-27T03:49:25.421Z,0
2018-03-27T03:50:05.832Z,0
2018-03-27T03:50:46.214Z,0
2018-03-27T03:51:26.625Z,0
2018-03-27T03:52:07.036Z,0
2018-03-27T03:52:47.421Z,0
2018-03-27T03:53:27.845Z,0
2018-03-27T03:54:08.257Z,0
2018-03-27T03:56:35.995Z,0
2018-03-27T03:57:16.293Z,0
2018-03-27T03:59:28.737Z,0
2018-03-27T04:00:09.150Z,0
2018-03-27T04:00:49.552Z,0
2018-03-27T04:01:29.948Z,0
2018-03-27T04:02:10.341Z,0
2018-03-27T04:02:50.749Z,0
2018-03-27T04:03:31.145Z,0
2018-03-27T04:04:11.550Z,0
2018-03-27T04:04:51.929Z,0
2018-03-27T04:05:32.351Z,0
2018-03-27T04:45:59.089Z,0
2018-03-27T04:46:38.583Z,0
2018-03-27T04:47:18.937Z,0
2018-03-27T04:47:59.344Z,0
2018-03-27T04:48:39.755Z,0
2018-03-27T04:49:20.149Z,0
2018-03-27T04:50:00.554Z,0
2018-03-27T04:50:40.950Z,0
2018-03-27T04:51:21.354Z,0
2018-03-27T04:52:01.753Z,0
2018-03-27T04:52:42.120Z,0
2018-03-27T04:54:55.087Z,0
2018-03-27T04:55:35.165Z,0
2018-03-27T04:56:15.582Z,0
2018-03-27T04:56:55.972Z,0
2018-03-27T04:59:08.411Z,0
2018-03-27T04:59:48.828Z,0
2018-03-27T05:00:29.233Z,0
2018-03-27T05:01:09.604Z,0
2018-03-27T05:01:50.012Z,0
2018-03-27T05:02:30.427Z,0
2018-03-27T05:03:10.808Z,0
2018-03-27T05:03:51.226Z,0
2018-03-27T05:04:31.621Z,0
2018-03-27T05:05:12.046Z,0
2018-03-27T05:05:52.450Z,0
2018-03-27T05:06:32.871Z,0
2018-03-27T05:07:13.246Z,0
2018-03-27T05:07:54.060Z,0
2018-03-27T05:08:34.594Z,0
2018-03-27T05:09:14.986Z,0
2018-03-27T05:09:55.474Z,0
2018-03-27T05:10:35.841Z,0
2018-03-27T05:13:10.438Z,0
2018-03-27T05:13:50.904Z,0
2018-03-27T05:14:31.325Z,0
2018-03-27T05:15:11.706Z,0
2018-03-27T05:15:52.137Z,0
2018-03-27T05:16:32.691Z,0
2018-03-27T05:17:13.110Z,0
2018-03-27T05:17:53.572Z,0
2018-03-27T05:18:33.946Z,0
2018-03-27T05:19:14.407Z,0
2018-03-27T05:19:54.760Z,0
2018-03-27T05:20:35.094Z,0
2018-03-27T05:21:15.652Z,0
2018-03-27T05:21:56.035Z,0
2018-03-27T05:22:36.463Z,0
2018-03-27T05:23:16.796Z,0
2018-03-27T05:23:57.590Z,5
2018-03-27T05:24:38.062Z,5
2018-03-27T05:25:18.433Z,5
2018-03-27T05:25:59.793Z,5
2018-03-27T05:26:40.259Z,5
2018-03-27T05:27:20.654Z,5
2018-03-27T05:28:01.054Z,5
2018-03-27T05:28:41.540Z,10
2018-03-27T05:29:22.005Z,10
2018-03-27T05:30:02.402Z,10
2018-03-27T05:30:42.868Z,10
2018-03-27T05:31:23.194Z,10
2018-03-27T05:32:03.572Z,15
2018-03-27T05:32:43.922Z,15
2018-03-27T05:33:24.336Z,15
2018-03-27T05:34:04.820Z,20
2018-03-27T05:34:45.326Z,20
2018-03-27T05:35:25.707Z,25
2018-03-27T05:36:06.126Z,25
2018-03-27T05:36:46.465Z,30
2018-03-27T05:37:26.906Z,30
2018-03-27T05:38:07.492Z,35
2018-03-27T05:38:47.859Z,35
2018-03-27T05:39:28.274Z,35
2018-03-27T05:40:08.642Z,40
2018-03-27T05:40:49.113Z,40
2018-03-27T05:41:29.479Z,45
2018-03-27T05:42:09.916Z,45
2018-03-27T05:42:51.094Z,45
2018-03-27T05:43:31.546Z,50
2018-03-27T05:44:12.078Z,50
2018-03-27T05:44:52.462Z,55
2018-03-27T05:45:32.883Z,60
2018-03-27T05:46:13.341Z,65
2018-03-27T05:46:53.802Z,65
2018-03-27T05:47:34.203Z,70
2018-03-27T05:48:14.548Z,75
2018-03-27T05:48:55.044Z,75
2018-03-27T05:49:35.483Z,80
2018-03-27T05:50:15.926Z,80
2018-03-27T05:50:56.427Z,85
2018-03-27T05:51:37.004Z,90
2018-03-27T05:52:18.393Z,95
2018-03-27T05:52:58.932Z,95
2018-03-27T05:53:52.273Z,100
2018-03-27T05:54:32.636Z,100
2018-03-27T05:55:13.123Z,105
2018-03-27T05:55:53.609Z,105
2018-03-27T05:56:34.060Z,110
2018-03-27T05:57:14.493Z,110
2018-03-27T05:57:54.860Z,100
2018-03-27T05:58:35.299Z,65
2018-03-27T05:59:15.765Z,35
2018-03-27T05:59:57.255Z,30
2018-03-27T06:00:37.730Z,50
2018-03-27T06:01:18.184Z,130
2018-03-27T06:01:58.790Z,155
2018-03-27T06:02:39.244Z,155
2018-03-27T06:03:19.594Z,165
2018-03-27T06:04:00.083Z,170
2018-03-27T06:04:40.430Z,175
2018-03-27T06:05:20.927Z,175
2018-03-27T06:06:01.378Z,185
2018-03-27T06:06:41.755Z,200
2018-03-27T06:07:22.114Z,210
2018-03-27T06:08:02.550Z,215
2018-03-27T06:08:43.739Z,210
2018-03-27T06:09:24.209Z,220
2018-03-27T06:10:04.695Z,220
2018-03-27T06:10:45.130Z,225
2018-03-27T06:11:25.628Z,230
2018-03-27T06:14:19.258Z,255
2018-03-27T06:14:59.748Z,255
2018-03-27T06:15:40.206Z,245
2018-03-27T06:16:20.697Z,120
2018-03-27T06:17:01.213Z,85
2018-03-27T06:17:41.772Z,145
2018-03-27T06:18:22.269Z,85
2018-03-27T06:19:03.025Z,90
2018-03-27T06:19:43.433Z,95
2018-03-27T06:20:23.935Z,310
2018-03-27T06:21:04.371Z,260
2018-03-27T06:21:44.855Z,330
2018-03-27T06:22:25.277Z,340
2018-03-27T06:23:05.796Z,345
2018-03-27T06:23:46.251Z,350
2018-03-27T06:24:26.653Z,360
2018-03-27T06:25:07.076Z,370
2018-03-27T06:25:47.482Z,385
2018-03-27T06:26:27.927Z,385
2018-03-27T06:27:08.338Z,390
2018-03-27T06:27:48.772Z,400
2018-03-27T06:28:29.223Z,400
2018-03-27T06:31:07.244Z,425
2018-03-27T06:34:07.797Z,450
2018-03-27T06:34:48.255Z,450
2018-03-27T06:35:29.152Z,455
2018-03-27T06:36:09.536Z,460
2018-03-27T06:36:49.986Z,460
2018-03-27T06:37:30.409Z,475
2018-03-27T06:38:10.921Z,490
2018-03-27T06:38:52.947Z,505
2018-03-27T06:39:33.010Z,505
2018-03-27T06:40:13.434Z,505
2018-03-27T06:40:53.818Z,500
2018-03-27T06:41:34.225Z,510
2018-03-27T06:42:14.666Z,540
2018-03-27T06:42:55.035Z,550
2018-03-27T06:43:35.426Z,545
2018-03-27T06:44:15.821Z,545
2018-03-27T06:44:56.252Z,550
2018-03-27T06:45:36.629Z,550
2018-03-27T06:46:17.072Z,550
2018-03-27T06:46:57.472Z,560
2018-03-27T06:47:37.927Z,575
2018-03-27T06:48:18.313Z,590
2018-03-27T06:48:58.757Z,600
2018-03-27T06:49:39.424Z,595
2018-03-27T06:50:19.719Z,595
2018-03-27T06:51:00.165Z,590
2018-03-27T06:51:40.535Z,610
2018-03-27T06:52:20.977Z,620
2018-03-27T06:53:01.387Z,615
2018-03-27T06:53:41.880Z,610
2018-03-27T06:54:23.356Z,600
2018-03-27T06:55:03.163Z,600
2018-03-27T06:55:44.782Z,590
2018-03-27T06:56:24.753Z,475
2018-03-27T06:57:05.104Z,345
2018-03-27T06:57:45.500Z,245
2018-03-27T06:58:25.930Z,205
2018-03-27T06:59:06.425Z,105
2018-03-27T06:59:46.763Z,90
2018-03-27T07:00:27.194Z,90
2018-03-27T07:01:07.626Z,95
2018-03-27T07:01:48.039Z,100
2018-03-27T07:02:28.474Z,100
2018-03-27T07:03:08.923Z,95
2018-03-27T07:03:49.351Z,85
2018-03-27T07:04:29.772Z,75
2018-03-27T07:05:10.162Z,65
2018-03-27T07:05:50.607Z,65
2018-03-27T07:06:31.002Z,55
2018-03-27T07:07:11.554Z,50
2018-03-27T07:07:51.952Z,50
2018-03-27T07:08:32.393Z,45
2018-03-27T07:09:12.803Z,40
2018-03-27T07:09:53.258Z,40
2018-03-27T07:10:33.920Z,35
2018-03-27T07:11:14.352Z,35
2018-03-27T07:11:55.015Z,35
2018-03-27T07:12:35.436Z,35
2018-03-27T07:13:15.827Z,35
2018-03-27T07:13:56.254Z,40
2018-03-27T07:14:36.959Z,45
2018-03-27T07:15:17.048Z,50
2018-03-27T07:15:57.480Z,55
2018-03-27T07:16:38.090Z,60
2018-03-27T07:17:18.534Z,65
2018-03-27T07:17:58.921Z,60
2018-03-27T07:18:39.368Z,55
2018-03-27T07:19:19.776Z,50
2018-03-27T07:20:00.178Z,60
2018-03-27T07:20:40.548Z,45
2018-03-27T07:21:20.981Z,35
2018-03-27T07:22:01.438Z,30
2018-03-27T07:22:42.055Z,30
2018-03-27T07:23:22.810Z,30
2018-03-27T07:24:03.528Z,30
2018-03-27T07:24:44.042Z,30
2018-03-27T07:25:24.562Z,25
2018-03-27T07:26:05.357Z,25
2018-03-27T07:26:46.011Z,25
2018-03-27T07:27:26.445Z,25
2018-03-27T07:28:06.848Z,25
2018-03-27T07:28:48.216Z,25
2018-03-27T07:29:28.628Z,25
2018-03-27T07:30:09.046Z,30
2018-03-27T07:30:50.285Z,30
2018-03-27T07:31:31.378Z,35
2018-03-27T07:32:11.603Z,35
2018-03-27T07:32:52.512Z,40
2018-03-27T07:33:34.771Z,45
2018-03-27T07:34:15.315Z,90
2018-03-27T07:34:55.797Z,60
2018-03-27T07:37:27.165Z,50
2018-03-27T07:38:07.547Z,50
2018-03-27T07:38:47.949Z,45
2018-03-27T07:39:28.335Z,45
2018-03-27T07:40:08.771Z,40
2018-03-27T07:40:49.277Z,40
2018-03-27T07:41:29.717Z,40
2018-03-27T07:42:10.397Z,35
2018-03-27T07:42:52.180Z,35
2018-03-27T07:43:32.961Z,35
2018-03-27T07:44:12.816Z,30
2018-03-27T07:44:53.327Z,30
2018-03-27T07:45:33.765Z,30
2018-03-27T07:46:14.136Z,25
2018-03-27T07:46:56.082Z,25
2018-03-27T07:47:36.066Z,25
2018-03-27T07:50:09.563Z,25
2018-03-27T07:50:50.017Z,25
2018-03-27T07:51:30.331Z,25
2018-03-27T07:52:10.886Z,25
2018-03-27T07:52:51.268Z,25
2018-03-27T07:53:32.584Z,25
2018-03-27T07:54:12.958Z,25
2018-03-27T07:54:53.420Z,25
2018-03-27T07:55:33.812Z,25
2018-03-27T07:56:14.233Z,25
2018-03-27T07:58:33.855Z,30
2018-03-27T07:59:14.312Z,30
2018-03-27T07:59:54.860Z,30
2018-03-27T08:00:35.242Z,35
2018-03-27T08:01:15.647Z,35
2018-03-27T08:01:56.812Z,35
2018-03-27T08:02:36.962Z,35
2018-03-27T08:03:17.434Z,35
2018-03-27T08:03:57.837Z,40
2018-03-27T08:04:39.298Z,40
2018-03-27T08:05:19.202Z,40
2018-03-27T08:05:59.623Z,40
2018-03-27T08:06:40.524Z,35
2018-03-27T08:07:21.433Z,35
2018-03-27T08:08:01.980Z,35
2018-03-27T08:08:42.372Z,30
2018-03-27T08:09:22.765Z,30
2018-03-27T08:10:03.181Z,35
2018-03-27T08:10:44.616Z,35
2018-03-27T08:11:25.073Z,35
2018-03-27T08:12:05.464Z,35
2018-03-27T08:12:45.897Z,35
2018-03-27T08:15:06.314Z,40
2018-03-27T08:15:46.179Z,40
2018-03-27T08:16:26.548Z,45
2018-03-27T08:17:06.999Z,45
2018-03-27T08:17:47.440Z,45
2018-03-27T08:18:27.871Z,45
2018-03-27T08:19:08.196Z,55
2018-03-27T08:19:48.590Z,55
2018-03-27T08:20:28.982Z,60
2018-03-27T08:21:09.993Z,70
2018-03-27T08:21:49.800Z,75
2018-03-27T08:22:30.319Z,80
2018-03-27T08:23:10.768Z,80
2018-03-27T08:23:51.146Z,85
2018-03-27T08:24:31.897Z,85
2018-03-27T08:25:12.980Z,75
2018-03-27T08:25:53.180Z,70
2018-03-27T08:26:33.572Z,70
2018-03-27T08:27:14.038Z,65
2018-03-27T08:27:54.474Z,60
2018-03-27T08:30:36.368Z,45
2018-03-27T08:31:17.351Z,45
2018-03-27T08:31:57.667Z,45
2018-03-27T08:32:40.181Z,50
2018-03-27T08:33:20.595Z,55
2018-03-27T08:34:01.093Z,55
2018-03-27T08:34:44.334Z,60
2018-03-27T08:35:24.833Z,65
2018-03-27T08:36:08.984Z,65
2018-03-27T08:36:50.043Z,60
2018-03-27T08:37:30.476Z,55
2018-03-27T08:38:10.871Z,55
2018-03-27T08:38:51.778Z,50
2018-03-27T08:39:32.212Z,45
2018-03-27T08:40:17.171Z,40
2018-03-27T08:41:01.104Z,40
2018-03-27T08:41:41.521Z,40
2018-03-27T08:42:21.998Z,40
2018-03-27T08:48:22.246Z,45
2018-03-27T08:49:02.804Z,50
2018-03-27T08:49:43.203Z,50
2018-03-27T08:50:23.682Z,55
2018-03-27T08:51:04.123Z,60
2018-03-27T08:51:45.675Z,50
2018-03-27T08:52:25.427Z,50
2018-03-27T08:53:05.788Z,50
2018-03-27T08:53:46.201Z,45
2018-03-27T08:54:26.790Z,45
2018-03-27T08:55:07.322Z,45
2018-03-27T08:55:47.921Z,45
2018-03-27T08:56:28.429Z,45
2018-03-27T08:57:09.370Z,45
2018-03-27T08:57:50.139Z,50
2018-03-27T08:58:30.453Z,45
2018-03-27T08:59:10.930Z,45
2018-03-27T08:59:51.515Z,45
2018-03-27T09:00:31.830Z,45
2018-03-27T09:01:12.506Z,45
2018-03-27T09:01:52.904Z,45
2018-03-27T09:02:33.428Z,45
2018-03-27T09:03:14.006Z,45
2018-03-27T09:03:54.529Z,40
2018-03-27T09:04:34.912Z,40
2018-03-27T09:05:15.507Z,40
2018-03-27T09:05:56.044Z,40
2018-03-27T09:06:36.448Z,40
2018-03-27T09:07:16.948Z,40
2018-03-27T09:07:57.716Z,40
2018-03-27T09:08:38.273Z,40
2018-03-27T09:09:19.176Z,40
2018-03-27T09:09:59.820Z,40
2018-03-27T09:10:40.450Z,40
2018-03-27T09:11:21.694Z,45
2018-03-27T09:12:03.079Z,50
2018-03-27T09:12:43.529Z,50
2018-03-27T09:13:24.538Z,50
2018-03-27T09:14:05.546Z,50
2018-03-27T09:14:46.270Z,55
2018-03-27T09:15:26.488Z,55
2018-03-27T09:16:07.423Z,50
2018-03-27T09:16:48.102Z,55
2018-03-27T09:17:28.901Z,55
2018-03-27T09:18:09.694Z,55
2018-03-27T09:18:51.200Z,60
2018-03-27T09:19:32.640Z,60
2018-03-27T09:20:12.955Z,60
2018-03-27T09:20:53.431Z,60
2018-03-27T09:21:34.528Z,60
2018-03-27T09:22:15.350Z,60
2018-03-27T09:22:56.091Z,65
2018-03-27T09:23:36.801Z,65
2018-03-27T09:24:18.317Z,70
2018-03-27T09:24:58.999Z,70
2018-03-27T09:25:40.333Z,70
2018-03-27T09:26:21.251Z,70
2018-03-27T09:27:01.755Z,70
2018-03-27T09:27:42.652Z,70
2018-03-27T09:28:23.632Z,70
2018-03-27T09:29:04.563Z,70
2018-03-27T09:29:45.556Z,60
2018-03-27T09:30:25.945Z,55
2018-03-27T09:31:06.598Z,50
2018-03-27T09:31:47.238Z,50
2018-03-27T09:32:27.807Z,45
2018-03-27T09:33:08.975Z,45
2018-03-27T09:33:49.912Z,45
2018-03-27T09:34:31.539Z,45
2018-03-27T09:35:12.079Z,45
2018-03-27T09:35:52.624Z,50
2018-03-27T09:36:33.553Z,45
2018-03-27T09:37:15.116Z,45
2018-03-27T09:37:55.388Z,45
2018-03-27T09:38:36.037Z,50
2018-03-27T09:39:16.979Z,50
2018-03-27T09:39:57.922Z,50
2018-03-27T09:40:39.555Z,50
2018-03-27T09:41:20.548Z,50
2018-03-27T09:42:01.050Z,55
2018-03-27T09:42:41.329Z,55
2018-03-27T09:43:21.916Z,55
2018-03-27T09:44:02.559Z,55
2018-03-27T09:44:43.047Z,60
2018-03-27T09:45:23.566Z,60
2018-03-27T09:46:03.871Z,55
2018-03-27T09:46:44.711Z,55
2018-03-27T09:47:25.159Z,55
2018-03-27T09:48:05.666Z,55
2018-03-27T09:48:46.334Z,50
2018-03-27T09:49:26.952Z,50
2018-03-27T09:50:07.372Z,45
2018-03-27T09:50:48.048Z,45
2018-03-27T09:51:28.574Z,40
2018-03-27T09:52:08.914Z,40
2018-03-27T09:52:49.582Z,40
2018-03-27T09:53:30.265Z,40
2018-03-27T09:55:47.472Z,40
2018-03-27T09:56:27.949Z,40
2018-03-27T09:57:08.962Z,40
2018-03-27T09:57:49.399Z,40
2018-03-27T09:58:29.842Z,40
2018-03-27T09:59:10.368Z,40
2018-03-27T09:59:50.741Z,40
2018-03-27T10:00:31.388Z,40
2018-03-27T10:01:11.962Z,45
2018-03-27T10:01:53.778Z,45
2018-03-27T10:02:34.251Z,45
2018-03-27T10:03:56.726Z,50
2018-03-27T10:04:38.525Z,50
2018-03-27T10:05:20.395Z,55
2018-03-27T10:06:01.175Z,60
2018-03-27T10:06:42.826Z,60
2018-03-27T10:07:23.497Z,60
2018-03-27T10:46:22.741Z,85
2018-03-27T10:47:03.992Z,85
2018-03-27T10:47:44.404Z,80
2018-03-27T10:48:25.431Z,75
2018-03-27T10:49:06.374Z,70
2018-03-27T10:49:47.267Z,65
2018-03-27T10:50:28.377Z,60
2018-03-27T10:51:09.374Z,60
2018-03-27T10:51:49.693Z,60
2018-03-27T10:52:30.475Z,60
2018-03-27T10:53:11.263Z,65
2018-03-27T10:56:09.376Z,70
2018-03-27T10:56:49.916Z,75
2018-03-27T10:57:30.809Z,75
2018-03-27T10:58:11.323Z,75
2018-03-27T10:58:52.466Z,70
2018-03-27T10:59:33.754Z,65
2018-03-27T11:00:14.230Z,60
2018-03-27T11:00:54.673Z,60
2018-03-27T11:01:35.258Z,60
2018-03-27T11:02:15.615Z,60
2018-03-27T11:02:56.032Z,60
2018-03-27T11:03:37.355Z,55
2018-03-27T11:04:18.300Z,55
2018-03-27T11:04:59.004Z,55
2018-03-27T11:05:39.602Z,55
2018-03-27T11:06:20.374Z,55
2018-03-27T11:07:01.098Z,60
2018-03-27T11:07:41.894Z,60
2018-03-27T11:08:22.554Z,65
2018-03-27T11:09:03.279Z,65
2018-03-27T11:09:44.431Z,65
2018-03-27T11:10:24.248Z,65
2018-03-27T11:11:06.040Z,65
2018-03-27T11:11:46.598Z,70
2018-03-27T11:12:26.510Z,75
2018-03-27T11:13:09.093Z,75
2018-03-27T11:13:49.507Z,75
2018-03-27T11:14:30.221Z,70
2018-03-27T11:15:10.646Z,75
2018-03-27T11:15:52.600Z,65
2018-03-27T11:16:33.960Z,65
2018-03-27T11:17:15.174Z,60
2018-03-27T11:17:56.056Z,55
2018-03-27T11:18:36.463Z,50
2018-03-27T11:19:16.966Z,50
2018-03-27T11:19:57.598Z,45
2018-03-27T11:20:37.998Z,45
2018-03-27T11:21:18.650Z,40
2018-03-27T11:21:58.980Z,40
2018-03-27T11:22:39.587Z,40
2018-03-27T11:23:20.175Z,40
2018-03-27T11:24:02.149Z,40
2018-03-27T11:24:42.584Z,40
2018-03-27T11:25:22.935Z,40
2018-03-27T11:26:03.378Z,40
2018-03-27T11:26:43.771Z,40
2018-03-27T11:27:24.198Z,40
2018-03-27T11:28:04.624Z,40
2018-03-27T11:30:17.119Z,40
2018-03-27T11:30:57.560Z,35
2018-03-27T11:31:38.829Z,35
2018-03-27T11:32:19.367Z,35
2018-03-27T11:33:00.183Z,35
2018-03-27T11:33:40.449Z,35
2018-03-27T11:34:20.895Z,35
2018-03-27T11:35:01.267Z,35
2018-03-27T11:35:42.567Z,35
2018-03-27T11:36:23.156Z,35
2018-03-27T11:37:03.545Z,35
2018-03-27T11:37:44.161Z,35
2018-03-27T11:38:24.538Z,35
2018-03-27T11:39:05.203Z,35
2018-03-27T11:39:45.508Z,40
2018-03-27T11:40:25.948Z,40
2018-03-27T11:41:06.314Z,40
2018-03-27T11:41:46.709Z,40
2018-03-27T11:42:27.203Z,40
2018-03-27T11:43:07.578Z,40
2018-03-27T11:43:47.961Z,40
2018-03-27T11:44:28.384Z,40
2018-03-27T11:45:08.793Z,35
2018-03-27T11:45:49.332Z,35
2018-03-27T11:46:29.777Z,35
2018-03-27T11:47:11.786Z,40
2018-03-27T11:47:52.172Z,40
2018-03-27T11:50:20.695Z,35
2018-03-27T11:51:01.136Z,35
2018-03-27T11:55:00.085Z,30
2018-03-27T11:55:40.641Z,30
2018-03-27T11:56:21.104Z,30
2018-03-27T11:57:01.589Z,30
2018-03-27T11:57:42.026Z,30
2018-03-27T11:58:22.459Z,25
2018-03-27T11:59:03.105Z,25
2018-03-27T11:59:43.605Z,25
2018-03-27T12:00:24.077Z,25
2018-03-27T12:01:04.498Z,25
2018-03-27T12:01:46.213Z,20
2018-03-27T12:02:26.164Z,20
2018-03-27T12:03:06.520Z,20
2018-03-27T12:03:46.985Z,20
2018-03-27T12:04:27.578Z,20
2018-03-27T12:05:08.087Z,20